Time;durP1;ratioP1;P1;durP2;ratioP2;P2;SDS_P1;SDS_P2;PMS_P1;PMS_P2;Temp;Humidity;BMP_temperature;BMP_pressure;BME280_temperature;BME280_humidity;BME280_pressure;Samples;Min_cycle;Max_cycle;Signal;HPM_P1;HPM_P2
2023/05/19 00:00:51;;;;;;;7.32;3.25;;;8.20;99.90;;;;;;7314941;32;20218;-56
2023/05/19 00:04:53;;;;;;;7.25;3.33;;;8.20;99.90;;;;;;7329666;32;20250;-56
2023/05/19 00:09:03;;;;;;;6.85;3.28;;;8.00;99.90;;;;;;7324225;32;20149;-56
2023/05/19 00:13:05;;;;;;;10.68;3.33;;;7.90;99.90;;;;;;7321373;32;20825;-56
2023/05/19 00:17:07;;;;;;;9.20;3.12;;;7.80;99.90;;;;;;7324410;32;20108;-55
2023/05/19 00:21:09;;;;;;;12.23;3.35;;;7.70;99.90;;;;;;7328432;32;20226;-56
2023/05/19 00:25:11;;;;;;;7.28;3.50;;;7.60;99.90;;;;;;7323670;32;20700;-56
2023/05/19 00:29:17;;;;;;;7.35;3.17;;;7.50;99.90;;;;;;7323188;32;20686;-56
2023/05/19 00:33:19;;;;;;;10.13;2.80;;;7.40;99.90;;;;;;7329136;32;20627;-55
2023/05/19 00:37:22;;;;;;;11.40;3.30;;;7.30;99.90;;;;;;7326647;32;20633;-55
2023/05/19 00:41:23;;;;;;;8.00;3.45;;;7.20;99.90;;;;;;7324207;32;20135;-55
2023/05/19 00:45:26;;;;;;;8.52;3.47;;;7.10;99.90;;;;;;7320673;32;20210;-55
2023/05/19 00:49:27;;;;;;;9.15;3.22;;;7.00;99.90;;;;;;7328269;32;20182;-55
2023/05/19 00:53:31;;;;;;;5.65;3.00;;;7.00;99.90;;;;;;7317847;32;20715;-56
2023/05/19 00:57:33;;;;;;;7.75;3.42;;;6.90;99.90;;;;;;7323965;32;20609;-56
2023/05/19 01:01:35;;;;;;;7.65;3.42;;;6.90;99.90;;;;;;7324424;32;20125;-55
2023/05/19 01:05:40;;;;;;;6.37;3.62;;;6.70;99.90;;;;;;7314251;32;20100;-56
2023/05/19 01:09:42;;;;;;;8.88;3.78;;;6.70;99.90;;;;;;7325494;32;20348;-55
2023/05/19 01:13:44;;;;;;;7.75;3.42;;;6.60;99.90;;;;;;7321937;32;20380;-55
2023/05/19 01:18:02;;;;;;;8.35;3.50;;;6.50;99.90;;;;;;7320349;32;20253;-55
2023/05/19 01:22:22;;;;;;;6.82;3.62;;;6.50;99.90;;;;;;7320743;32;20486;-55
2023/05/19 01:26:39;;;;;;;8.95;4.20;;;6.40;99.90;;;;;;7324431;32;20257;-55
2023/05/19 01:30:43;;;;;;;9.48;4.03;;;6.20;99.90;;;;;;7327092;32;20153;-55
2023/05/19 01:34:49;;;;;;;9.35;3.70;;;6.20;99.90;;;;;;7320095;32;20126;-55
2023/05/19 01:38:54;;;;;;;11.98;3.70;;;6.20;99.90;;;;;;7324978;32;20532;-55
2023/05/19 01:42:59;;;;;;;10.65;4.28;;;6.20;99.90;;;;;;7325309;32;20126;-55
2023/05/19 01:47:02;;;;;;;7.68;3.62;;;6.20;99.90;;;;;;7325046;32;20160;-55
2023/05/19 01:51:04;;;;;;;7.85;4.20;;;6.00;99.90;;;;;;7321277;32;20118;-55
2023/05/19 01:55:07;;;;;;;4.85;3.72;;;6.00;99.90;;;;;;7323511;32;20131;-55
2023/05/19 01:59:22;;;;;;;6.97;4.25;;;5.90;99.90;;;;;;7326085;32;20433;-55
2023/05/19 02:03:28;;;;;;;4.80;3.22;;;6.00;99.90;;;;;;7321533;32;20454;-55
2023/05/19 02:07:41;;;;;;;5.57;4.18;;;6.00;99.90;;;;;;7329060;32;20151;-55
2023/05/19 02:11:46;;;;;;;7.97;4.18;;;5.90;99.90;;;;;;7319876;32;20103;-55
2023/05/19 02:15:51;;;;;;;9.82;3.95;;;5.90;99.90;;;;;;7316796;32;20154;-55
2023/05/19 02:19:52;;;;;;;7.07;3.90;;;5.90;99.90;;;;;;7321895;32;20567;-56
2023/05/19 02:23:54;;;;;;;9.40;4.20;;;5.90;99.90;;;;;;7318462;32;20112;-55
2023/05/19 02:27:57;;;;;;;6.68;4.20;;;5.80;99.90;;;;;;7317124;32;20096;-55
2023/05/19 02:32:00;;;;;;;7.53;4.12;;;5.80;99.90;;;;;;7324201;32;20227;-55
2023/05/19 02:36:02;;;;;;;10.77;4.75;;;5.80;99.90;;;;;;7303389;32;20237;-55
2023/05/19 02:40:05;;;;;;;7.28;4.75;;;5.80;99.90;;;;;;7322824;32;20117;-55
2023/05/19 02:44:06;;;;;;;12.68;5.50;;;5.90;99.90;;;;;;7318382;32;20355;-55
2023/05/19 02:48:08;;;;;;;12.85;6.65;;;6.00;99.90;;;;;;7323680;32;20244;-55
2023/05/19 02:52:11;;;;;;;10.98;6.05;;;6.20;99.90;;;;;;7317723;32;20463;-55
2023/05/19 02:56:12;;;;;;;13.05;6.05;;;6.40;99.90;;;;;;7312757;32;20099;-55
2023/05/19 03:00:15;;;;;;;14.77;6.47;;;6.50;99.90;;;;;;7300757;32;20118;-55
2023/05/19 03:04:18;;;;;;;14.73;6.43;;;6.60;99.90;;;;;;7328680;32;20503;-56
2023/05/19 03:08:20;;;;;;;11.65;6.60;;;6.60;99.90;;;;;;7332133;32;20589;-55
2023/05/19 03:12:22;;;;;;;8.35;5.57;;;6.70;99.90;;;;;;7333188;32;20416;-55
2023/05/19 03:16:24;;;;;;;8.93;5.62;;;6.70;99.90;;;;;;7319764;32;20130;-55
2023/05/19 03:20:26;;;;;;;12.05;5.78;;;6.60;99.90;;;;;;7326386;32;20187;-55
2023/05/19 03:24:28;;;;;;;12.02;5.72;;;6.60;99.90;;;;;;7328818;32;20128;-55
2023/05/19 03:28:29;;;;;;;10.27;5.65;;;6.50;99.90;;;;;;7331122;32;20178;-55
2023/05/19 03:32:31;;;;;;;12.32;4.82;;;6.50;99.90;;;;;;7306239;32;20130;-56
2023/05/19 03:36:38;;;;;;;9.50;5.20;;;6.50;99.90;;;;;;7332640;32;20114;-55
2023/05/19 03:40:40;;;;;;;12.75;5.97;;;6.50;99.90;;;;;;7330660;32;20230;-56
2023/05/19 03:44:43;;;;;;;11.77;5.50;;;6.40;99.90;;;;;;7333875;32;20452;-55
2023/05/19 03:48:45;;;;;;;10.30;5.30;;;6.40;99.90;;;;;;7311321;32;20187;-55
2023/05/19 03:52:47;;;;;;;10.85;5.28;;;6.40;99.90;;;;;;7334726;32;20108;-55
2023/05/19 03:56:49;;;;;;;9.38;5.50;;;6.30;99.90;;;;;;7334388;32;20574;-55
2023/05/19 04:00:51;;;;;;;9.98;5.37;;;6.30;99.90;;;;;;7316987;32;20151;-56
2023/05/19 04:04:52;;;;;;;9.80;5.72;;;6.40;99.90;;;;;;7316649;32;20103;-55
2023/05/19 04:08:54;;;;;;;8.02;5.28;;;6.40;99.90;;;;;;7330006;32;20116;-56
2023/05/19 04:12:56;;;;;;;8.27;5.40;;;6.40;99.90;;;;;;7334074;32;20104;-55
2023/05/19 04:16:58;;;;;;;12.90;6.05;;;6.40;99.90;;;;;;7331836;32;20107;-55
2023/05/19 04:21:00;;;;;;;10.23;5.30;;;6.50;99.90;;;;;;7333885;32;20235;-55
2023/05/19 04:25:03;;;;;;;10.07;5.30;;;6.60;99.90;;;;;;7327384;32;20159;-55
2023/05/19 04:29:05;;;;;;;7.97;5.07;;;6.70;99.90;;;;;;7336773;32;20103;-55
2023/05/19 04:33:08;;;;;;;14.27;5.35;;;6.90;99.90;;;;;;7331979;32;20145;-55
2023/05/19 04:37:12;;;;;;;12.02;5.12;;;7.20;99.90;;;;;;7318578;32;20611;-55
2023/05/19 04:41:15;;;;;;;8.77;4.75;;;7.40;99.90;;;;;;7316292;32;20252;-55
2023/05/19 04:45:17;;;;;;;10.38;4.57;;;7.70;99.90;;;;;;7329467;32;20253;-55
2023/05/19 04:49:19;;;;;;;7.93;3.90;;;8.00;99.90;;;;;;7316817;32;20133;-57
2023/05/19 04:53:21;;;;;;;12.48;4.32;;;8.40;99.90;;;;;;7326678;32;20187;-57
2023/05/19 04:57:23;;;;;;;7.53;3.78;;;8.80;99.90;;;;;;7329493;32;20151;-57
2023/05/19 05:01:24;;;;;;;9.88;4.00;;;9.20;99.90;;;;;;7328783;32;20627;-57
2023/05/19 05:05:27;;;;;;;11.25;4.05;;;9.40;99.90;;;;;;7327213;32;20561;-58
2023/05/19 05:09:29;;;;;;;10.52;4.15;;;9.80;99.90;;;;;;7310289;32;20934;-58
2023/05/19 05:13:31;;;;;;;9.38;3.55;;;10.00;99.90;;;;;;7329160;32;20140;-57
2023/05/19 05:17:34;;;;;;;9.02;3.90;;;9.80;99.90;;;;;;7316469;32;20887;-57
2023/05/19 05:21:36;;;;;;;9.13;4.15;;;9.80;99.90;;;;;;7329890;32;20215;-56
2023/05/19 05:25:38;;;;;;;11.15;4.07;;;9.90;99.90;;;;;;7329472;32;20210;-56
2023/05/19 05:29:40;;;;;;;10.65;4.60;;;9.70;99.90;;;;;;7329136;32;20548;-56
2023/05/19 05:33:42;;;;;;;9.00;3.75;;;9.70;99.90;;;;;;7324215;32;20265;-57
2023/05/19 05:37:44;;;;;;;9.55;4.65;;;9.50;99.90;;;;;;7319123;32;20108;-57
2023/05/19 05:41:46;;;;;;;9.40;4.15;;;9.50;99.90;;;;;;7332091;32;20199;-56
2023/05/19 05:45:48;;;;;;;9.30;4.18;;;9.60;99.90;;;;;;7337658;32;20473;-56
2023/05/19 05:49:50;;;;;;;9.73;4.85;;;9.70;99.90;;;;;;7329560;32;20266;-57
2023/05/19 05:53:55;;;;;;;11.20;4.72;;;9.60;99.90;;;;;;7325858;32;20168;-55
2023/05/19 05:57:57;;;;;;;8.48;4.45;;;9.70;99.90;;;;;;7326279;32;20103;-56
2023/05/19 06:01:59;;;;;;;10.43;4.37;;;9.80;99.90;;;;;;7330681;32;20130;-57
2023/05/19 06:06:01;;;;;;;11.40;4.82;;;9.80;99.90;;;;;;7330784;32;20329;-56
2023/05/19 06:10:03;;;;;;;10.60;4.05;;;9.90;99.90;;;;;;7330891;32;20137;-56
2023/05/19 06:14:05;;;;;;;7.10;3.85;;;10.10;99.90;;;;;;7330909;32;20812;-56
2023/05/19 06:18:07;;;;;;;8.45;3.70;;;10.60;99.90;;;;;;7326233;32;20108;-56
2023/05/19 06:22:09;;;;;;;5.97;3.10;;;11.30;99.90;;;;;;7333120;32;20226;-56
2023/05/19 06:26:10;;;;;;;10.00;3.10;;;11.60;99.90;;;;;;7330507;32;20232;-57
2023/05/19 06:30:12;;;;;;;8.80;3.05;;;12.30;99.90;;;;;;7332397;32;20507;-57
2023/05/19 06:34:16;;;;;;;10.20;3.40;;;12.80;99.90;;;;;;7329295;32;20515;-57
2023/05/19 06:38:18;;;;;;;9.60;2.50;;;13.50;99.90;;;;;;7329634;32;20115;-58
2023/05/19 06:42:24;;;;;;;6.90;2.60;;;13.60;99.90;;;;;;7327930;32;20147;-56
2023/05/19 06:46:26;;;;;;;6.43;2.33;;;13.80;99.90;;;;;;7311318;32;20269;-56
2023/05/19 06:50:27;;;;;;;6.82;2.53;;;14.90;99.90;;;;;;7331994;32;20202;-56
2023/05/19 06:54:29;;;;;;;13.70;6.30;;;14.50;99.90;;;;;;7315056;32;20127;-58
2023/05/19 06:58:31;;;;;;;5.85;2.67;;;14.60;99.90;;;;;;7313425;32;20128;-56
2023/05/19 07:02:33;;;;;;;8.77;3.08;;;14.30;99.90;;;;;;7321552;32;20301;-56
2023/05/19 07:06:35;;;;;;;7.37;2.92;;;13.80;99.90;;;;;;7322064;32;20118;-58
2023/05/19 07:10:37;;;;;;;8.43;2.28;;;13.60;99.90;;;;;;7329849;32;20302;-56
2023/05/19 07:14:39;;;;;;;8.43;2.72;;;13.70;99.90;;;;;;7327921;32;20230;-58
2023/05/19 07:18:41;;;;;;;8.63;3.47;;;13.40;99.90;;;;;;7308805;32;20119;-58
2023/05/19 07:22:43;;;;;;;9.75;2.85;;;13.50;99.90;;;;;;7312447;32;20168;-58
2023/05/19 07:26:45;;;;;;;10.85;3.40;;;13.80;99.90;;;;;;7323158;32;20131;-56
2023/05/19 07:30:48;;;;;;;6.00;2.20;;;13.90;99.90;;;;;;7333066;32;20130;-58
2023/05/19 07:34:51;;;;;;;7.20;2.33;;;14.40;99.90;;;;;;7328842;32;20278;-57
2023/05/19 07:38:52;;;;;;;9.00;2.60;;;14.50;99.90;;;;;;7323665;32;20149;-57
2023/05/19 07:42:54;;;;;;;9.13;4.45;;;14.30;99.90;;;;;;7311322;32;20242;-57
2023/05/19 07:46:56;;;;;;;6.45;2.30;;;14.40;99.90;;;;;;7319673;32;20676;-56
2023/05/19 07:50:58;;;;;;;9.18;2.25;;;14.20;99.90;;;;;;7324826;32;20256;-57
2023/05/19 07:55:00;;;;;;;6.53;1.92;;;14.20;99.90;;;;;;7322997;32;20226;-58
2023/05/19 07:59:03;;;;;;;8.13;2.42;;;14.20;99.90;;;;;;7322557;32;20107;-58
2023/05/19 08:03:06;;;;;;;8.32;2.17;;;14.30;99.90;;;;;;7321308;32;20426;-57
2023/05/19 08:07:08;;;;;;;5.37;1.62;;;14.50;99.90;;;;;;7325200;32;20829;-62
2023/05/19 08:11:10;;;;;;;5.75;1.98;;;14.70;99.90;;;;;;7330927;32;20144;-63
2023/05/19 08:15:13;;;;;;;5.45;1.70;;;15.10;99.90;;;;;;7337767;32;20142;-57
2023/05/19 08:19:15;;;;;;;6.90;1.62;;;15.50;99.90;;;;;;7334451;32;20674;-58
2023/05/19 08:23:17;;;;;;;8.10;3.22;;;15.90;99.90;;;;;;7332783;32;20309;-56
2023/05/19 08:27:18;;;;;;;8.05;1.75;;;16.00;99.90;;;;;;7338571;32;20123;-57
2023/05/19 08:31:21;;;;;;;4.37;1.62;;;16.40;99.90;;;;;;7339047;32;20205;-57
2023/05/19 08:35:23;;;;;;;5.62;1.60;;;16.30;99.90;;;;;;7332992;32;20112;-58
2023/05/19 08:39:26;;;;;;;7.80;1.85;;;17.40;99.90;;;;;;7334154;32;20159;-57
2023/05/19 08:43:28;;;;;;;6.22;1.70;;;17.70;99.90;;;;;;7331632;32;20779;-56
2023/05/19 08:47:31;;;;;;;6.05;1.65;;;17.40;99.70;;;;;;7326474;32;20316;-57
2023/05/19 08:51:54;;;;;;;7.60;1.60;;;17.40;99.40;;;;;;7330846;32;20527;-56
2023/05/19 08:56:09;;;;;;;7.47;1.85;;;17.60;99.90;;;;;;7311873;32;20225;-57
2023/05/19 09:00:12;;;;;;;4.62;1.60;;;17.80;97.90;;;;;;7325525;32;20214;-58
2023/05/19 09:04:15;;;;;;;7.20;1.60;;;18.10;94.30;;;;;;7314045;32;20104;-56
2023/05/19 09:08:17;;;;;;;7.82;1.80;;;18.50;93.50;;;;;;7332394;32;20130;-56
2023/05/19 09:12:19;;;;;;;7.50;1.52;;;18.60;96.00;;;;;;7327238;32;20231;-57
2023/05/19 09:16:21;;;;;;;8.30;1.50;;;19.00;92.30;;;;;;7313669;32;20537;-56
2023/05/19 09:20:23;;;;;;;5.70;1.60;;;19.40;92.80;;;;;;7330311;32;20115;-57
2023/05/19 09:24:25;;;;;;;5.43;1.40;;;20.50;91.30;;;;;;7331058;32;20733;-57
2023/05/19 09:28:33;;;;;;;8.82;1.77;;;19.90;86.40;;;;;;7314016;32;20596;-58
2023/05/19 09:32:35;;;;;;;4.90;1.58;;;20.30;89.40;;;;;;7323118;32;20187;-57
2023/05/19 09:36:39;;;;;;;9.45;1.70;;;20.70;83.70;;;;;;7334110;32;20139;-57
2023/05/19 09:40:41;;;;;;;5.75;1.62;;;20.20;90.40;;;;;;7327727;32;20255;-61
2023/05/19 09:44:42;;;;;;;7.07;1.70;;;20.80;90.10;;;;;;7324891;32;20131;-61
2023/05/19 09:48:44;;;;;;;4.45;1.95;;;20.00;91.00;;;;;;7322003;32;20146;-61
2023/05/19 09:52:47;;;;;;;6.62;1.90;;;19.80;85.60;;;;;;7327403;32;20242;-61
2023/05/19 09:57:02;;;;;;;7.28;1.65;;;20.10;86.80;;;;;;7325737;32;20169;-61
2023/05/19 10:01:06;;;;;;;3.42;1.50;;;20.00;83.70;;;;;;7330791;32;20146;-62
2023/05/19 10:05:11;;;;;;;4.82;1.30;;;20.30;85.20;;;;;;7326924;32;20483;-57
2023/05/19 10:09:15;;;;;;;9.27;1.83;;;20.50;86.50;;;;;;7325996;32;20108;-58
2023/05/19 10:13:17;;;;;;;5.82;1.42;;;19.70;81.10;;;;;;7327580;32;20182;-57
2023/05/19 10:17:19;;;;;;;7.57;1.65;;;20.10;84.20;;;;;;7334164;32;20179;-58
2023/05/19 10:21:21;;;;;;;8.40;2.33;;;19.90;81.90;;;;;;7336174;32;20207;-57
2023/05/19 10:25:22;;;;;;;7.65;1.42;;;19.50;85.40;;;;;;7324961;32;20250;-57
2023/05/19 10:29:28;;;;;;;6.80;1.45;;;20.00;87.50;;;;;;7325215;32;20131;-60
2023/05/19 10:33:52;;;;;;;9.82;2.60;;;20.10;83.20;;;;;;7325330;32;20115;-60
2023/05/19 10:38:19;;;;;;;6.68;1.60;;;20.20;83.90;;;;;;7329627;32;20135;-58
2023/05/19 10:42:28;;;;;;;;;;;20.60;80.50;;;;;;7326468;32;20259;-58
2023/05/19 10:46:30;;;;;;;8.02;1.40;;;20.80;85.20;;;;;;7325582;32;20007;-60
2023/05/19 10:50:36;;;;;;;7.00;1.17;;;20.20;77.70;;;;;;7324013;32;20134;-59
2023/05/19 10:54:45;;;;;;;9.23;1.75;;;20.50;79.40;;;;;;7327634;32;20100;-58
2023/05/19 10:58:49;;;;;;;9.25;1.70;;;20.70;80.10;;;;;;7328719;32;20164;-58
2023/05/19 11:02:55;;;;;;;6.47;1.60;;;20.70;81.20;;;;;;7310390;32;20628;-59
2023/05/19 11:07:02;;;;;;;4.43;1.20;;;21.10;75.40;;;;;;7330762;32;20291;-58
2023/05/19 11:11:15;;;;;;;4.55;1.20;;;21.30;78.50;;;;;;7336830;32;20214;-59
2023/05/19 11:15:17;;;;;;;4.97;1.40;;;21.40;72.90;;;;;;7314973;32;20283;-59
2023/05/19 11:19:30;;;;;;;6.37;1.65;;;21.50;77.00;;;;;;7333228;32;20167;-58
2023/05/19 11:23:38;;;;;;;6.62;1.35;;;20.90;69.50;;;;;;7329935;32;20293;-58
2023/05/19 11:27:41;;;;;;;7.20;1.87;;;20.70;74.40;;;;;;7327435;32;20162;-59
2023/05/19 11:31:43;;;;;;;6.87;1.40;;;20.40;71.40;;;;;;7334062;32;20142;-57
2023/05/19 11:35:49;;;;;;;4.47;1.27;;;20.60;76.40;;;;;;7327885;32;20782;-62
2023/05/19 11:39:52;;;;;;;6.70;1.50;;;21.10;74.10;;;;;;7329154;32;20103;-59
2023/05/19 11:43:53;;;;;;;4.90;1.60;;;21.80;74.70;;;;;;7329547;32;20733;-58
2023/05/19 11:47:57;;;;;;;8.00;1.70;;;22.10;71.20;;;;;;7332021;32;20131;-63
2023/05/19 11:52:04;;;;;;;4.85;1.45;;;22.30;71.40;;;;;;7326948;32;20127;-58
2023/05/19 11:56:06;;;;;;;8.02;1.67;;;22.20;67.80;;;;;;7326059;32;20164;-60
2023/05/19 12:00:09;;;;;;;5.20;1.65;;;23.00;70.10;;;;;;7312419;32;20659;-56
2023/05/19 12:04:10;;;;;;;12.20;1.92;;;22.70;68.10;;;;;;7331883;32;20205;-56
2023/05/19 12:08:13;;;;;;;4.55;1.50;;;22.80;62.90;;;;;;7330133;32;20642;-56
2023/05/19 12:12:19;;;;;;;6.47;1.67;;;23.50;66.30;;;;;;7328005;32;20139;-57
2023/05/19 12:16:21;;;;;;;4.43;1.15;;;24.20;64.10;;;;;;7327799;32;20108;-56
2023/05/19 12:20:25;;;;;;;4.93;1.40;;;25.40;64.00;;;;;;7328675;32;20112;-57
2023/05/19 12:24:27;;;;;;;7.15;1.70;;;25.00;58.50;;;;;;7330100;32;20107;-54
2023/05/19 12:28:30;;;;;;;5.35;1.52;;;22.20;61.80;;;;;;7331061;32;20141;-54
2023/05/19 12:32:34;;;;;;;4.53;1.42;;;22.20;64.30;;;;;;7334967;32;20135;-54
2023/05/19 12:36:36;;;;;;;6.28;1.48;;;22.60;64.90;;;;;;7330575;32;20439;-54
2023/05/19 12:40:38;;;;;;;5.40;1.48;;;23.10;61.00;;;;;;7333526;32;20154;-55
2023/05/19 12:44:45;;;;;;;6.30;1.92;;;23.50;62.80;;;;;;7326291;32;21650;-57
2023/05/19 12:48:47;;;;;;;4.25;1.20;;;22.40;66.70;;;;;;7326507;32;20128;-55
2023/05/19 12:52:52;;;;;;;7.32;1.30;;;22.90;66.60;;;;;;7331418;32;20247;-56
2023/05/19 12:57:04;;;;;;;14.93;2.10;;;23.70;61.20;;;;;;7326943;32;20783;-55
2023/05/19 13:01:14;;;;;;;8.18;2.25;;;23.10;60.10;;;;;;7323407;32;20103;-55
2023/05/19 13:05:16;;;;;;;6.70;1.55;;;22.10;65.40;;;;;;7326992;32;20832;-55
2023/05/19 13:09:18;;;;;;;4.10;1.80;;;22.50;68.80;;;;;;7317153;32;20769;-56
2023/05/19 13:13:20;;;;;;;17.17;10.60;;;22.40;63.70;;;;;;7325898;32;20138;-58
2023/05/19 13:17:22;;;;;;;8.43;1.70;;;22.80;65.00;;;;;;7333879;32;20221;-57
2023/05/19 13:21:24;;;;;;;9.05;1.75;;;21.70;65.50;;;;;;7326107;32;20509;-57
2023/05/19 13:25:26;;;;;;;9.10;1.77;;;21.40;68.40;;;;;;7325789;32;20131;-58
2023/05/19 13:29:28;;;;;;;17.37;2.92;;;22.10;70.60;;;;;;7326672;32;20877;-54
2023/05/19 13:33:30;;;;;;;3.37;1.30;;;22.20;65.20;;;;;;7319009;32;20151;-57
2023/05/19 13:37:32;;;;;;;9.10;1.90;;;22.20;65.40;;;;;;7325290;32;20273;-56
2023/05/19 13:41:34;;;;;;;8.57;1.92;;;21.50;64.30;;;;;;7329083;32;20128;-57
2023/05/19 13:45:36;;;;;;;6.60;1.95;;;20.80;67.60;;;;;;7327733;32;20119;-57
2023/05/19 13:49:38;;;;;;;14.00;2.37;;;20.90;70.80;;;;;;7335803;32;20130;-57
2023/05/19 13:53:40;;;;;;;5.78;1.42;;;21.10;67.20;;;;;;7323826;32;20721;-59
2023/05/19 13:57:41;;;;;;;5.68;1.52;;;21.40;67.90;;;;;;7325270;32;20297;-58
2023/05/19 14:01:44;;;;;;;4.57;1.42;;;21.80;66.70;;;;;;7331750;32;20702;-57
2023/05/19 14:05:47;;;;;;;5.32;1.40;;;22.40;64.70;;;;;;7335437;32;20637;-57
2023/05/19 14:09:49;;;;;;;3.70;1.58;;;22.70;63.30;;;;;;7338220;32;20167;-57
2023/05/19 14:13:51;;;;;;;5.07;1.50;;;22.70;63.00;;;;;;7329847;32;20242;-58
2023/05/19 14:17:54;;;;;;;4.57;1.15;;;23.10;64.30;;;;;;7332447;32;20139;-58
2023/05/19 14:21:56;;;;;;;4.07;1.20;;;23.80;64.00;;;;;;7335466;32;20300;-57
2023/05/19 14:25:58;;;;;;;4.37;1.00;;;23.50;59.10;;;;;;7331991;32;20111;-57
2023/05/19 14:29:59;;;;;;;3.80;1.27;;;23.10;59.90;;;;;;7327320;32;20153;-58
2023/05/19 14:34:01;;;;;;;4.93;1.42;;;21.60;61.20;;;;;;7318028;32;20216;-58
2023/05/19 14:38:03;;;;;;;6.22;1.45;;;21.10;64.10;;;;;;7327149;32;20897;-56
2023/05/19 14:42:05;;;;;;;9.02;5.30;;;21.50;62.50;;;;;;7327752;32;20107;-57
2023/05/19 14:46:07;;;;;;;4.55;1.85;;;22.80;61.50;;;;;;7322054;32;20269;-57
2023/05/19 14:50:10;;;;;;;2.97;1.12;;;22.30;59.20;;;;;;7319119;32;20110;-57
2023/05/19 14:54:11;;;;;;;4.68;1.30;;;22.20;59.30;;;;;;7328497;32;20744;-57
2023/05/19 14:58:13;;;;;;;6.85;1.48;;;22.80;60.10;;;;;;7316773;32;20280;-57
2023/05/19 15:02:29;;;;;;;7.15;1.30;;;22.70;58.30;;;;;;7327557;32;20498;-57
2023/05/19 15:06:30;;;;;;;7.10;1.30;;;21.60;60.50;;;;;;7337737;32;20166;-57
2023/05/19 15:10:32;;;;;;;3.78;1.25;;;21.60;59.90;;;;;;7327308;32;20273;-57
2023/05/19 15:14:34;;;;;;;3.47;1.20;;;21.20;60.80;;;;;;7325629;32;20229;-58
2023/05/19 15:18:36;;;;;;;3.33;1.27;;;21.00;63.50;;;;;;7330093;32;20842;-56
2023/05/19 15:22:38;;;;;;;4.68;1.35;;;20.60;63.10;;;;;;7330637;32;20123;-56
2023/05/19 15:26:40;;;;;;;7.43;2.62;;;20.10;62.50;;;;;;7327969;32;20177;-56
2023/05/19 15:30:43;;;;;;;6.18;1.85;;;20.10;61.50;;;;;;7335743;32;20255;-57
2023/05/19 15:34:45;;;;;;;3.95;1.15;;;20.00;62.40;;;;;;7325200;32;20172;-58
2023/05/19 15:38:47;;;;;;;7.18;1.60;;;20.10;61.70;;;;;;7337769;32;20123;-57
2023/05/19 15:42:49;;;;;;;2.72;1.40;;;20.00;63.40;;;;;;7329955;32;20218;-57
2023/05/19 15:46:51;;;;;;;6.03;1.30;;;20.10;61.40;;;;;;7340646;32;20148;-57
2023/05/19 15:50:56;;;;;;;5.62;1.23;;;20.10;61.30;;;;;;7349852;32;20111;-57
2023/05/19 15:54:58;;;;;;;3.22;1.40;;;19.90;61.10;;;;;;7321823;32;20111;-55
2023/05/19 15:59:00;;;;;;;3.87;2.53;;;19.60;62.70;;;;;;7326037;32;20138;-57
2023/05/19 16:03:02;;;;;;;4.70;1.40;;;19.50;63.60;;;;;;7325652;32;20145;-57
2023/05/19 16:07:04;;;;;;;5.28;1.62;;;19.40;61.60;;;;;;7319437;32;20151;-57
2023/05/19 16:11:06;;;;;;;3.90;1.37;;;18.90;62.50;;;;;;7334935;32;20445;-59
2023/05/19 16:15:08;;;;;;;2.90;1.35;;;19.10;63.00;;;;;;7333449;32;20139;-58
2023/05/19 16:19:10;;;;;;;3.75;1.40;;;19.00;64.10;;;;;;7312793;32;20642;-58
2023/05/19 16:23:12;;;;;;;5.75;1.60;;;18.90;66.10;;;;;;7320002;32;20274;-57
2023/05/19 16:27:14;;;;;;;3.55;1.12;;;19.20;66.70;;;;;;7329836;32;20119;-58
2023/05/19 16:31:15;;;;;;;6.30;1.60;;;19.20;67.50;;;;;;7339189;32;20265;-57
2023/05/19 16:35:17;;;;;;;3.35;1.52;;;19.10;66.90;;;;;;7338000;32;20272;-57
2023/05/19 16:39:19;;;;;;;4.22;1.60;;;19.10;66.00;;;;;;7329796;32;20138;-57
2023/05/19 16:43:21;;;;;;;10.30;6.40;;;18.90;67.90;;;;;;7323046;32;20116;-57
2023/05/19 16:47:23;;;;;;;5.70;1.58;;;18.90;68.80;;;;;;7337773;32;20204;-57
2023/05/19 16:51:25;;;;;;;5.80;1.48;;;18.80;68.20;;;;;;7333957;32;20200;-57
2023/05/19 16:55:26;;;;;;;3.58;1.50;;;18.80;67.70;;;;;;7332840;32;20120;-57
2023/05/19 16:59:28;;;;;;;3.78;1.20;;;18.70;67.40;;;;;;7328792;32;20128;-57
2023/05/19 17:03:30;;;;;;;4.50;1.45;;;18.50;68.70;;;;;;7331194;32;20572;-57
2023/05/19 17:07:32;;;;;;;6.20;1.10;;;18.50;70.40;;;;;;7339062;32;20303;-57
2023/05/19 17:11:34;;;;;;;4.87;1.40;;;18.50;70.70;;;;;;7329960;32;20159;-57
2023/05/19 17:15:36;;;;;;;4.45;2.03;;;18.60;69.60;;;;;;7326858;32;20525;-57
2023/05/19 17:19:38;;;;;;;2.78;1.20;;;18.50;70.80;;;;;;7329460;32;20753;-57
2023/05/19 17:23:40;;;;;;;5.32;1.40;;;18.40;70.20;;;;;;7325511;32;20139;-57
2023/05/19 17:27:42;;;;;;;4.65;1.40;;;18.40;70.00;;;;;;7328062;32;20108;-57
2023/05/19 17:31:43;;;;;;;3.12;1.10;;;18.20;70.10;;;;;;7306723;32;20106;-57
2023/05/19 17:35:45;;;;;;;6.97;1.33;;;18.10;69.90;;;;;;7327463;32;20143;-56
2023/05/19 17:39:47;;;;;;;4.57;1.20;;;18.30;69.40;;;;;;7318260;32;20218;-57
2023/05/19 17:43:49;;;;;;;2.40;1.40;;;18.20;69.80;;;;;;7327104;32;20136;-58
2023/05/19 17:47:51;;;;;;;4.03;1.40;;;18.20;71.20;;;;;;7330097;32;20130;-57
2023/05/19 17:51:53;;;;;;;3.70;1.30;;;18.10;71.50;;;;;;7326653;32;20353;-58
2023/05/19 17:56:03;;;;;;;3.87;1.45;;;18.00;71.60;;;;;;7310843;32;20371;-57
2023/05/19 18:00:06;;;;;;;5.75;1.40;;;17.90;72.50;;;;;;7326397;32;20112;-57
2023/05/19 18:04:08;;;;;;;2.95;1.30;;;17.80;73.30;;;;;;7311850;32;20650;-57
2023/05/19 18:08:11;;;;;;;8.65;4.00;;;17.70;73.40;;;;;;7322042;32;20107;-59
2023/05/19 18:12:14;;;;;;;4.15;1.80;;;17.60;73.60;;;;;;7327671;32;20356;-57
2023/05/19 18:16:16;;;;;;;3.45;1.50;;;17.70;72.90;;;;;;7329236;32;20183;-57
2023/05/19 18:20:18;;;;;;;4.32;1.58;;;17.50;74.60;;;;;;7325171;32;20798;-58
2023/05/19 18:24:19;;;;;;;3.35;1.40;;;17.40;75.60;;;;;;7328033;32;20170;-59
2023/05/19 18:28:22;;;;;;;3.70;1.37;;;17.20;76.50;;;;;;7312074;32;20131;-57
2023/05/19 18:32:24;;;;;;;4.20;1.35;;;17.10;78.10;;;;;;7330056;32;20657;-57
2023/05/19 18:36:26;;;;;;;3.67;1.50;;;17.00;78.20;;;;;;7332075;32;20878;-58
2023/05/19 18:40:28;;;;;;;4.97;1.50;;;17.10;76.00;;;;;;7329898;32;20422;-63
2023/05/19 18:44:30;;;;;;;2.72;1.40;;;17.00;77.70;;;;;;7314009;32;20131;-59
2023/05/19 18:48:32;;;;;;;4.50;1.48;;;17.00;79.20;;;;;;7328481;32;20108;-58
2023/05/19 18:52:34;;;;;;;4.50;1.65;;;16.80;79.80;;;;;;7314675;32;20406;-58
2023/05/19 18:56:36;;;;;;;4.00;1.50;;;16.70;80.40;;;;;;7334178;32;20219;-58
2023/05/19 19:00:38;;;;;;;2.45;1.20;;;16.60;80.00;;;;;;7323792;32;20119;-58
2023/05/19 19:04:39;;;;;;;2.70;1.60;;;16.60;81.10;;;;;;7319886;32;20127;-59
2023/05/19 19:08:42;;;;;;;2.95;1.33;;;16.30;82.00;;;;;;7329204;32;20099;-58
2023/05/19 19:12:44;;;;;;;3.55;1.20;;;16.30;82.70;;;;;;7311326;32;20186;-57
2023/05/19 19:16:46;;;;;;;3.55;1.55;;;16.20;84.10;;;;;;7326752;32;20226;-59
2023/05/19 19:20:48;;;;;;;4.62;1.70;;;16.00;85.40;;;;;;7327656;32;20545;-58
2023/05/19 19:24:50;;;;;;;6.90;1.85;;;15.90;88.30;;;;;;7328985;32;20189;-58
2023/05/19 19:28:51;;;;;;;3.97;1.70;;;15.60;90.50;;;;;;7328178;32;20116;-58
2023/05/19 19:32:55;;;;;;;5.00;1.52;;;15.50;91.00;;;;;;7332646;32;20108;-57
2023/05/19 19:36:57;;;;;;;4.90;1.48;;;15.30;92.70;;;;;;7329494;32;20107;-57
2023/05/19 19:40:59;;;;;;;2.95;1.40;;;15.20;95.50;;;;;;7336659;32;20545;-56
2023/05/19 19:45:01;;;;;;;4.03;1.50;;;14.90;96.50;;;;;;7329054;32;20111;-58
2023/05/19 19:49:03;;;;;;;1.70;1.10;;;14.80;97.40;;;;;;7319554;32;20274;-58
2023/05/19 19:53:05;;;;;;;4.20;1.67;;;14.70;97.30;;;;;;7329478;32;20246;-59
2023/05/19 19:57:06;;;;;;;4.68;1.58;;;14.60;98.60;;;;;;7332330;32;20264;-57
2023/05/19 20:01:09;;;;;;;4.55;1.80;;;14.50;99.90;;;;;;7330175;32;20226;-59
2023/05/19 20:05:11;;;;;;;2.65;1.45;;;14.30;99.90;;;;;;7332121;32;20563;-58
2023/05/19 20:09:13;;;;;;;8.07;1.87;;;14.20;99.90;;;;;;7309670;32;20146;-56
2023/05/19 20:13:15;;;;;;;1.75;1.05;;;14.10;99.90;;;;;;7326420;32;20273;-56
2023/05/19 20:17:17;;;;;;;5.82;1.65;;;13.90;99.90;;;;;;7329977;32;20263;-58
2023/05/19 20:21:19;;;;;;;4.22;1.50;;;13.90;99.90;;;;;;7316973;32;20119;-58
2023/05/19 20:25:21;;;;;;;3.17;1.27;;;13.80;99.90;;;;;;7329442;32;20167;-58
2023/05/19 20:29:23;;;;;;;4.45;1.70;;;13.60;99.90;;;;;;7332792;32;20143;-57
2023/05/19 20:33:24;;;;;;;3.60;1.48;;;13.60;99.90;;;;;;7325904;32;20595;-57
2023/05/19 20:37:26;;;;;;;2.17;1.30;;;13.70;99.90;;;;;;7329835;32;20135;-56
2023/05/19 20:41:28;;;;;;;3.80;1.50;;;13.70;99.90;;;;;;7324589;32;20111;-56
2023/05/19 20:45:30;;;;;;;4.57;1.40;;;13.60;99.90;;;;;;7326687;32;20941;-56
2023/05/19 20:49:32;;;;;;;5.05;1.33;;;13.50;99.90;;;;;;7332232;32;20137;-57
2023/05/19 20:53:35;;;;;;;3.67;1.05;;;13.60;99.90;;;;;;7329258;32;20210;-56
2023/05/19 20:57:37;;;;;;;3.92;1.35;;;13.60;99.90;;;;;;7322097;32;20119;-57
2023/05/19 21:01:38;;;;;;;3.42;1.37;;;13.50;99.90;;;;;;7332809;32;20103;-56
2023/05/19 21:05:40;;;;;;;3.53;1.35;;;13.50;99.90;;;;;;7324304;32;20107;-55